createdAt,value
2022-08-27T00:01:40.110Z,17.74
2022-08-27T00:04:07.984Z,17.71
2022-08-27T00:06:36.171Z,17.76
2022-08-27T00:09:04.966Z,17.69
2022-08-27T00:11:33.122Z,17.65
2022-08-27T00:14:01.064Z,17.73
2022-08-27T00:16:29.183Z,17.72
2022-08-27T00:19:00.334Z,17.69
2022-08-27T00:21:28.084Z,17.70
2022-08-27T00:23:55.961Z,17.61
2022-08-27T00:26:23.709Z,17.62
2022-08-27T00:28:52.292Z,17.57
2022-08-27T00:31:20.113Z,17.61
2022-08-27T00:33:55.052Z,17.65
2022-08-27T00:36:24.714Z,17.69
2022-08-27T00:38:53.755Z,17.69
2022-08-27T00:41:22.738Z,17.54
2022-08-27T00:43:53.786Z,17.52
2022-08-27T00:46:27.901Z,17.51
2022-08-27T00:49:00.749Z,17.48
2022-08-27T00:51:31.394Z,17.47
2022-08-27T00:54:02.493Z,17.43
2022-08-27T00:56:36.107Z,17.45
2022-08-27T00:59:05.294Z,17.41
2022-08-27T01:01:35.971Z,17.35
2022-08-27T01:04:06.481Z,17.32
2022-08-27T01:06:38.575Z,17.31
2022-08-27T01:09:14.488Z,17.30
2022-08-27T01:11:42.328Z,17.28
2022-08-27T01:14:10.222Z,17.22
2022-08-27T01:16:40.579Z,17.17
2022-08-27T01:19:11.793Z,17.14
2022-08-27T01:21:48.433Z,17.21
2022-08-27T01:24:37.534Z,17.19
2022-08-27T01:27:13.295Z,17.16
2022-08-27T01:29:42.689Z,17.07
2022-08-27T01:32:13.968Z,17.09
2022-08-27T01:34:42.417Z,17.01
2022-08-27T01:37:10.928Z,17.09
2022-08-27T01:39:41.955Z,17.13
2022-08-27T01:42:15.168Z,17.09
2022-08-27T01:44:48.705Z,17.11
2022-08-27T01:47:17.300Z,17.07
2022-08-27T01:49:45.374Z,17.13
2022-08-27T01:52:14.441Z,17.08
2022-08-27T01:54:43.685Z,17.01
2022-08-27T01:57:11.549Z,17.00
2022-08-27T01:59:40.179Z,16.99
2022-08-27T02:02:10.482Z,17.02
2022-08-27T02:04:38.801Z,16.90
2022-08-27T02:07:06.659Z,16.93
2022-08-27T02:09:34.640Z,16.98
2022-08-27T02:12:04.943Z,16.99
2022-08-27T02:14:32.730Z,16.97
2022-08-27T02:17:00.526Z,16.96
2022-08-27T02:19:28.367Z,16.92
2022-08-27T02:22:00.144Z,16.84
2022-08-27T02:24:28.805Z,16.86
2022-08-27T02:26:57.478Z,16.88
2022-08-27T02:29:26.789Z,16.91
2022-08-27T02:31:54.898Z,16.86
2022-08-27T02:34:23.124Z,16.82
2022-08-27T02:36:50.893Z,16.82
2022-08-27T02:39:18.694Z,16.77
2022-08-27T02:41:46.634Z,16.79
2022-08-27T02:44:14.473Z,16.71
2022-08-27T02:46:43.741Z,16.70
2022-08-27T02:49:11.770Z,16.71
2022-08-27T02:51:39.666Z,16.72
2022-08-27T02:54:09.471Z,16.74
2022-08-27T02:56:37.609Z,16.74
2022-08-27T02:59:05.514Z,16.74
2022-08-27T03:01:33.790Z,16.75
2022-08-27T03:04:02.943Z,16.73
2022-08-27T03:06:31.747Z,16.70
2022-08-27T03:08:59.518Z,16.70
2022-08-27T03:11:27.512Z,16.64
2022-08-27T03:13:55.288Z,16.60
2022-08-27T03:16:23.100Z,16.59
2022-08-27T03:18:49.891Z,16.59
2022-08-27T03:21:20.801Z,16.58
2022-08-27T03:23:49.209Z,16.54
2022-08-27T03:26:17.138Z,16.49
2022-08-27T03:28:46.164Z,16.44
2022-08-27T03:31:17.514Z,16.40
2022-08-27T03:33:45.338Z,16.38
2022-08-27T03:36:13.259Z,16.34
2022-08-27T03:38:42.443Z,16.32
2022-08-27T03:41:10.229Z,16.28
2022-08-27T03:43:38.049Z,16.27
2022-08-27T03:46:07.728Z,16.26
2022-08-27T03:48:36.515Z,16.24
2022-08-27T03:51:06.623Z,16.13
2022-08-27T03:53:34.829Z,16.13
2022-08-27T03:56:04.766Z,16.17
2022-08-27T03:58:32.769Z,16.19
2022-08-27T04:01:00.629Z,16.18
2022-08-27T04:03:28.671Z,16.19
2022-08-27T04:05:58.313Z,16.13
2022-08-27T04:08:27.248Z,16.14
2022-08-27T04:10:55.530Z,16.11
2022-08-27T04:13:24.918Z,16.15
2022-08-27T04:15:56.639Z,16.14
2022-08-27T04:18:24.570Z,16.09
2022-08-27T04:20:53.573Z,15.95
2022-08-27T04:23:21.989Z,16.02
2022-08-27T04:25:49.713Z,15.93
2022-08-27T04:28:18.007Z,15.97
2022-08-27T04:30:47.905Z,15.95
2022-08-27T04:33:16.516Z,15.95
2022-08-27T04:35:44.814Z,15.91
2022-08-27T04:38:12.653Z,15.85
2022-08-27T04:40:58.810Z,15.95
2022-08-27T04:43:28.866Z,15.92
2022-08-27T04:45:58.033Z,15.90
2022-08-27T04:48:26.527Z,15.83
2022-08-27T04:50:54.557Z,15.83
2022-08-27T04:53:22.459Z,15.89
2022-08-27T04:55:52.103Z,15.94
2022-08-27T04:58:21.359Z,15.94
2022-08-27T05:00:50.946Z,15.96
2022-08-27T05:03:23.622Z,15.99
2022-08-27T05:05:51.981Z,15.88
2022-08-27T05:08:19.910Z,15.93
2022-08-27T05:10:49.905Z,15.94
2022-08-27T05:13:19.559Z,15.90
2022-08-27T05:15:47.845Z,15.91
2022-08-27T05:18:15.683Z,15.88
2022-08-27T05:20:46.753Z,15.89
2022-08-27T05:23:17.398Z,15.80
2022-08-27T05:25:47.706Z,15.81
2022-08-27T05:28:16.889Z,15.90
2022-08-27T05:30:49.327Z,15.95
2022-08-27T05:33:26.098Z,16.02
2022-08-27T05:35:57.294Z,16.05
2022-08-27T05:38:27.049Z,16.10
2022-08-27T05:41:04.611Z,16.03
2022-08-27T05:43:33.094Z,16.08
2022-08-27T05:46:05.723Z,16.06
2022-08-27T05:48:34.074Z,16.14
2022-08-27T05:51:10.873Z,16.18
2022-08-27T05:53:39.926Z,16.22
2022-08-27T05:56:13.221Z,16.27
2022-08-27T05:58:58.320Z,16.34
2022-08-27T06:01:27.666Z,16.49
2022-08-27T06:03:56.344Z,16.62
2022-08-27T06:06:25.517Z,16.62
2022-08-27T06:08:54.762Z,16.66
2022-08-27T06:11:23.552Z,16.69
2022-08-27T06:13:51.617Z,16.62
2022-08-27T06:16:20.429Z,16.58
2022-08-27T06:18:49.685Z,16.62
2022-08-27T06:21:24.292Z,16.63
2022-08-27T06:23:54.453Z,16.72
2022-08-27T06:26:24.414Z,16.58
2022-08-27T06:28:52.514Z,16.44
2022-08-27T06:31:23.220Z,16.48
2022-08-27T06:33:52.199Z,16.51
2022-08-27T06:36:21.845Z,16.39
2022-08-27T06:38:49.793Z,16.33
2022-08-27T06:41:23.436Z,16.36
2022-08-27T06:43:52.906Z,16.32
2022-08-27T06:46:23.596Z,16.36
2022-08-27T06:48:53.178Z,16.30
2022-08-27T06:51:26.110Z,16.05
2022-08-27T06:53:55.078Z,16.17
2022-08-27T06:56:24.856Z,16.43
2022-08-27T06:58:55.256Z,16.32
2022-08-27T07:01:25.536Z,16.19
2022-08-27T07:03:55.571Z,16.13
2022-08-27T07:06:26.703Z,16.35
2022-08-27T07:08:54.767Z,16.36
2022-08-27T07:11:24.873Z,16.59
2022-08-27T07:13:53.008Z,16.60
2022-08-27T07:16:23.938Z,16.52
2022-08-27T07:18:54.190Z,16.75
2022-08-27T07:21:22.657Z,16.84
2022-08-27T07:23:52.436Z,16.94
2022-08-27T07:26:21.025Z,17.10
2022-08-27T07:28:51.838Z,17.13
2022-08-27T07:31:22.866Z,16.84
2022-08-27T07:33:53.140Z,16.88
2022-08-27T07:36:21.313Z,16.71
2022-08-27T07:38:56.682Z,16.67
2022-08-27T07:41:30.648Z,16.59
2022-08-27T07:44:18.176Z,16.65
2022-08-27T07:46:48.202Z,16.70
2022-08-27T07:49:17.225Z,16.84
2022-08-27T07:51:45.318Z,17.11
2022-08-27T07:54:13.278Z,17.14
2022-08-27T07:56:41.282Z,17.26
2022-08-27T07:59:10.596Z,17.60
2022-08-27T08:01:38.799Z,17.77
2022-08-27T08:04:06.762Z,17.79
2022-08-27T08:06:39.142Z,18.05
2022-08-27T08:09:08.005Z,18.45
2022-08-27T08:11:39.345Z,18.50
2022-08-27T08:14:07.105Z,18.23
2022-08-27T08:16:36.221Z,18.15
2022-08-27T08:19:04.095Z,18.12
2022-08-27T08:21:31.913Z,18.15
2022-08-27T08:24:00.271Z,18.41
2022-08-27T08:26:28.038Z,18.67
2022-08-27T08:28:56.113Z,18.77
2022-08-27T08:31:24.596Z,18.70
2022-08-27T08:33:55.005Z,18.86
2022-08-27T08:36:22.818Z,18.58
2022-08-27T08:38:50.978Z,18.70
2022-08-27T08:41:36.266Z,18.82
2022-08-27T08:44:11.109Z,18.91
2022-08-27T08:46:42.425Z,19.05
2022-08-27T08:49:19.255Z,19.23
2022-08-27T08:51:47.452Z,19.21
2022-08-27T08:54:19.105Z,19.12
2022-08-27T08:56:57.607Z,19.32
2022-08-27T08:59:30.722Z,19.33
2022-08-27T09:01:58.366Z,19.35
2022-08-27T09:04:29.206Z,19.46
2022-08-27T09:07:01.695Z,19.56
2022-08-27T09:09:35.782Z,19.78
2022-08-27T09:12:13.299Z,19.97
2022-08-27T09:14:47.283Z,20.20
2022-08-27T09:17:15.453Z,20.31
2022-08-27T09:19:45.055Z,20.34
2022-08-27T09:22:24.146Z,20.37
2022-08-27T09:25:03.249Z,20.57
2022-08-27T09:27:31.410Z,20.48
2022-08-27T09:29:59.249Z,20.74
2022-08-27T09:32:29.338Z,20.74
2022-08-27T09:35:02.697Z,20.95
2022-08-27T09:37:34.683Z,21.37
2022-08-27T09:40:13.268Z,21.44
2022-08-27T09:42:44.445Z,21.22
2022-08-27T09:45:19.260Z,21.36
2022-08-27T09:47:50.098Z,21.55
2022-08-27T09:50:23.773Z,21.62
2022-08-27T09:52:55.556Z,21.66
2022-08-27T09:55:28.966Z,21.73
2022-08-27T09:57:58.234Z,21.71
2022-08-27T10:00:34.622Z,21.80
2022-08-27T10:03:04.004Z,21.98
2022-08-27T10:05:38.337Z,22.00
2022-08-27T10:08:14.699Z,22.39
2022-08-27T10:10:51.148Z,22.46
2022-08-27T10:13:22.641Z,22.40
2022-08-27T10:16:03.662Z,22.33
2022-08-27T10:18:41.926Z,22.25
2022-08-27T10:21:20.169Z,22.25
2022-08-27T10:24:03.118Z,22.24
2022-08-27T10:26:40.369Z,22.67
2022-08-27T10:29:16.637Z,22.66
2022-08-27T10:31:56.101Z,22.96
2022-08-27T10:34:35.260Z,23.06
2022-08-27T10:37:19.703Z,23.19
2022-08-27T10:39:57.251Z,23.11
2022-08-27T10:42:29.486Z,23.17
2022-08-27T10:45:11.889Z,23.22
2022-08-27T10:48:04.443Z,23.57
2022-08-27T10:50:40.628Z,23.82
2022-08-27T10:53:17.969Z,23.56
2022-08-27T10:55:51.366Z,23.53
2022-08-27T10:58:29.910Z,23.60
2022-08-27T11:01:04.618Z,23.71
2022-08-27T11:03:38.831Z,23.94
2022-08-27T11:06:15.499Z,23.94
2022-08-27T11:08:49.910Z,23.79
2022-08-27T11:14:25.608Z,23.72
2022-08-27T11:16:59.048Z,24.11
2022-08-27T11:19:44.241Z,24.39
2022-08-27T11:22:26.393Z,24.77
2022-08-27T11:25:01.182Z,24.72
2022-08-27T11:27:33.169Z,24.71
2022-08-27T11:30:06.373Z,24.42
2022-08-27T11:32:46.377Z,24.43
2022-08-27T11:35:20.108Z,24.56
2022-08-27T11:38:31.069Z,24.82
2022-08-27T11:41:17.844Z,25.02
2022-08-27T11:43:47.171Z,25.37
2022-08-27T11:46:25.288Z,25.13
2022-08-27T11:48:59.706Z,25.13
2022-08-27T11:51:34.098Z,25.36
2022-08-27T11:54:04.243Z,25.38
2022-08-27T11:56:41.539Z,25.57
2022-08-27T11:59:22.420Z,25.78
2022-08-27T12:01:52.279Z,26.10
2022-08-27T12:04:33.805Z,26.14
2022-08-27T12:07:05.762Z,25.90
2022-08-27T12:10:02.398Z,25.73
2022-08-27T12:12:40.348Z,25.66
2022-08-27T12:15:13.297Z,25.91
2022-08-27T12:17:44.130Z,26.22
2022-08-27T12:20:22.970Z,25.95
2022-08-27T12:23:24.294Z,26.14
2022-08-27T12:26:00.062Z,26.40
2022-08-27T12:28:29.787Z,26.37
2022-08-27T12:30:58.615Z,26.77
2022-08-27T12:33:31.878Z,27.20
2022-08-27T12:36:08.277Z,27.25
2022-08-27T12:38:45.827Z,27.13
2022-08-27T12:41:27.698Z,26.84
2022-08-27T12:44:08.137Z,26.82
2022-08-27T12:46:39.920Z,27.14
2022-08-27T12:49:36.164Z,27.54
2022-08-27T12:51:58.016Z,27.59
2022-08-27T12:54:42.618Z,27.86
2022-08-27T12:57:20.172Z,28.19
2022-08-27T13:00:05.351Z,28.26
2022-08-27T13:02:47.156Z,28.52
2022-08-27T13:05:18.870Z,28.61
2022-08-27T13:07:52.108Z,28.35
2022-08-27T13:10:25.243Z,28.41
2022-08-27T13:13:03.939Z,28.33
2022-08-27T13:15:35.113Z,28.18
2022-08-27T13:18:07.347Z,28.29
2022-08-27T13:20:38.294Z,28.32
2022-08-27T13:23:17.305Z,28.39
2022-08-27T13:26:00.341Z,28.52
2022-08-27T13:28:30.532Z,28.74
2022-08-27T13:31:00.493Z,29.27
2022-08-27T13:33:31.432Z,29.42
2022-08-27T13:36:00.755Z,29.81
2022-08-27T13:38:31.572Z,29.50
2022-08-27T13:41:01.434Z,29.26
2022-08-27T13:43:36.373Z,29.18
2022-08-27T13:46:08.320Z,29.37
2022-08-27T13:48:40.700Z,29.74
2022-08-27T13:51:09.229Z,30.13
2022-08-27T13:53:55.681Z,29.87
2022-08-27T13:56:29.123Z,29.82
2022-08-27T13:59:07.633Z,29.37
2022-08-27T14:01:42.799Z,28.75
2022-08-27T14:04:21.946Z,28.69
2022-08-27T14:06:50.198Z,28.74
2022-08-27T14:09:22.105Z,28.93
2022-08-27T14:11:50.101Z,29.19
2022-08-27T14:14:19.701Z,29.14
2022-08-27T14:16:59.388Z,28.78
2022-08-27T14:19:33.397Z,28.43
2022-08-27T14:22:05.369Z,28.81
2022-08-27T14:24:33.114Z,29.02
2022-08-27T14:27:07.157Z,29.12
2022-08-27T14:29:34.933Z,29.28
2022-08-27T14:32:04.647Z,29.26
2022-08-27T14:34:32.674Z,29.44
2022-08-27T14:37:00.563Z,29.10
2022-08-27T14:39:28.583Z,28.86
2022-08-27T14:41:56.592Z,28.89
2022-08-27T14:44:25.125Z,28.91
2022-08-27T14:46:53.795Z,28.74
2022-08-27T14:49:28.000Z,29.05
2022-08-27T14:51:56.050Z,29.41
2022-08-27T14:54:24.128Z,29.14
2022-08-27T14:56:58.955Z,29.12
2022-08-27T14:59:27.191Z,28.91
2022-08-27T15:01:56.793Z,28.95
2022-08-27T15:04:27.396Z,28.89
2022-08-27T15:06:57.082Z,28.81
2022-08-27T15:09:25.007Z,29.05
2022-08-27T15:11:53.874Z,29.06
2022-08-27T15:14:25.577Z,28.78
2022-08-27T15:16:54.390Z,28.33
2022-08-27T15:19:24.071Z,28.46
2022-08-27T15:21:55.670Z,28.18
2022-08-27T15:24:26.139Z,28.85
2022-08-27T15:26:57.674Z,29.05
2022-08-27T15:29:26.046Z,28.96
2022-08-27T15:31:55.273Z,28.79
2022-08-27T15:34:23.100Z,28.34
2022-08-27T15:36:50.859Z,28.52
2022-08-27T15:39:20.036Z,28.40
2022-08-27T15:42:05.896Z,28.49
2022-08-27T15:44:35.013Z,28.39
2022-08-27T15:47:02.925Z,28.51
2022-08-27T15:49:30.840Z,28.47
2022-08-27T15:51:59.624Z,28.73
2022-08-27T15:54:29.248Z,28.72
2022-08-27T15:56:57.029Z,28.48
2022-08-27T15:59:24.831Z,28.25
2022-08-27T16:01:53.000Z,28.46
2022-08-27T16:04:20.838Z,28.46
2022-08-27T16:06:49.674Z,28.04
2022-08-27T16:09:17.824Z,27.92
2022-08-27T16:11:46.939Z,27.73
2022-08-27T16:14:16.206Z,27.83
2022-08-27T16:16:46.555Z,27.82
2022-08-27T16:19:16.728Z,27.97
2022-08-27T16:21:44.594Z,28.00
2022-08-27T16:24:12.802Z,28.06
2022-08-27T16:26:40.779Z,28.14
2022-08-27T16:29:10.393Z,27.77
2022-08-27T16:31:38.823Z,27.93
2022-08-27T16:34:14.901Z,28.03
2022-08-27T16:36:43.022Z,27.63
2022-08-27T16:39:11.118Z,27.54
2022-08-27T16:41:39.138Z,27.72
2022-08-27T16:44:07.589Z,27.61
2022-08-27T16:46:37.545Z,27.47
2022-08-27T16:49:31.327Z,27.33
2022-08-27T16:52:00.042Z,27.47
2022-08-27T16:54:28.600Z,27.86
2022-08-27T16:56:56.651Z,28.05
2022-08-27T16:59:24.376Z,28.22
2022-08-27T17:01:55.069Z,27.87
2022-08-27T17:04:29.576Z,27.68
2022-08-27T17:07:00.210Z,27.57
2022-08-27T17:09:28.459Z,27.61
2022-08-27T17:11:58.331Z,27.50
2022-08-27T17:14:26.588Z,27.42
2022-08-27T17:16:55.734Z,27.20
2022-08-27T17:19:26.034Z,26.89
2022-08-27T17:21:55.108Z,26.53
2022-08-27T17:24:23.088Z,26.63
2022-08-27T17:26:50.831Z,26.66
2022-08-27T17:29:19.782Z,26.62
2022-08-27T17:31:47.687Z,26.69
2022-08-27T17:34:21.259Z,26.85
2022-08-27T17:36:49.493Z,26.85
2022-08-27T17:39:17.826Z,26.97
2022-08-27T17:41:47.543Z,26.95
2022-08-27T17:44:23.600Z,26.92
2022-08-27T17:46:52.333Z,26.93
2022-08-27T17:49:21.855Z,26.83
2022-08-27T17:51:51.694Z,26.85
2022-08-27T17:54:28.360Z,26.74
2022-08-27T17:56:56.437Z,26.49
2022-08-27T17:59:24.559Z,26.55
2022-08-27T18:01:52.429Z,26.64
2022-08-27T18:04:22.357Z,26.57
2022-08-27T18:06:50.175Z,26.46
2022-08-27T18:09:18.197Z,26.25
2022-08-27T18:11:46.411Z,26.23
2022-08-27T18:14:18.376Z,25.98
2022-08-27T18:16:46.588Z,25.97
2022-08-27T18:19:14.455Z,26.00
2022-08-27T18:21:46.899Z,25.94
2022-08-27T18:24:15.607Z,25.92
2022-08-27T18:26:44.409Z,25.78
2022-08-27T18:29:13.546Z,25.80
2022-08-27T18:31:41.413Z,25.82
2022-08-27T18:34:09.154Z,25.77
2022-08-27T18:36:36.911Z,25.69
2022-08-27T18:39:06.046Z,25.64
2022-08-27T18:41:34.492Z,25.52
2022-08-27T18:44:02.349Z,25.32
2022-08-27T18:46:30.225Z,25.35
2022-08-27T18:48:58.002Z,25.34
2022-08-27T18:51:25.852Z,25.26
2022-08-27T18:53:59.586Z,25.18
2022-08-27T18:56:28.717Z,25.10
2022-08-27T18:58:56.458Z,25.06
2022-08-27T19:01:27.434Z,24.91
2022-08-27T19:03:57.917Z,24.81
2022-08-27T19:06:25.717Z,24.76
2022-08-27T19:08:53.583Z,24.74
2022-08-27T19:11:21.382Z,24.64
2022-08-27T19:13:51.029Z,24.60
2022-08-27T19:16:23.530Z,24.54
2022-08-27T19:18:52.222Z,24.49
2022-08-27T19:21:20.006Z,24.42
2022-08-27T19:23:48.150Z,24.37
2022-08-27T19:26:19.666Z,24.23
2022-08-27T19:28:47.882Z,24.26
2022-08-27T19:31:17.488Z,24.22
2022-08-27T19:33:46.087Z,24.22
2022-08-27T19:36:16.181Z,24.11
2022-08-27T19:38:45.231Z,24.02
2022-08-27T19:41:13.997Z,23.98
2022-08-27T19:43:45.813Z,23.92
2022-08-27T19:46:17.030Z,23.86
2022-08-27T19:48:46.270Z,23.76
2022-08-27T19:51:14.768Z,23.74
2022-08-27T19:53:43.724Z,23.71
2022-08-27T19:56:13.886Z,23.60
2022-08-27T19:58:42.230Z,23.53
2022-08-27T20:01:10.344Z,23.59
2022-08-27T20:03:38.705Z,23.62
2022-08-27T20:06:07.828Z,23.59
2022-08-27T20:08:35.534Z,23.51
2022-08-27T20:11:03.293Z,23.57
2022-08-27T20:13:33.202Z,23.43
2022-08-27T20:16:01.336Z,23.39
2022-08-27T20:18:29.522Z,23.16
2022-08-27T20:20:57.279Z,23.12
2022-08-27T20:23:26.354Z,23.16
2022-08-27T20:25:56.701Z,23.02
2022-08-27T20:28:39.348Z,22.89
2022-08-27T20:31:08.402Z,22.98
2022-08-27T20:33:36.171Z,22.93
2022-08-27T20:36:04.054Z,22.87
2022-08-27T20:38:33.166Z,22.80
2022-08-27T20:41:00.900Z,22.73
2022-08-27T20:43:29.926Z,22.75
2022-08-27T20:45:58.074Z,22.70
2022-08-27T20:48:25.802Z,22.63
2022-08-27T20:50:53.534Z,22.67
2022-08-27T20:53:22.180Z,22.56
2022-08-27T20:55:51.314Z,22.58
2022-08-27T20:58:36.441Z,22.44
2022-08-27T21:01:04.457Z,22.15
2022-08-27T21:03:32.244Z,22.29
2022-08-27T21:05:59.969Z,22.22
2022-08-27T21:08:27.739Z,22.23
2022-08-27T21:10:58.602Z,21.91
2022-08-27T21:13:27.811Z,21.92
2022-08-27T21:15:56.428Z,21.89
2022-08-27T21:18:29.300Z,21.87
2022-08-27T21:20:57.983Z,21.84
2022-08-27T21:23:27.640Z,21.91
2022-08-27T21:25:57.051Z,21.76
2022-08-27T21:28:24.834Z,21.70
2022-08-27T21:30:52.557Z,21.56
2022-08-27T21:33:20.355Z,21.55
2022-08-27T21:35:48.136Z,21.57
2022-08-27T21:38:15.960Z,21.42
2022-08-27T21:40:43.856Z,21.47
2022-08-27T21:43:13.038Z,21.52
2022-08-27T21:45:42.938Z,21.44
2022-08-27T21:48:11.030Z,21.37
2022-08-27T21:50:39.495Z,21.27
2022-08-27T21:53:07.309Z,21.26
2022-08-27T21:55:35.103Z,21.37
2022-08-27T21:58:02.868Z,21.29
2022-08-27T22:00:45.425Z,21.28
2022-08-27T22:03:15.633Z,21.14
2022-08-27T22:05:44.761Z,21.18
2022-08-27T22:08:13.986Z,21.09
2022-08-27T22:10:44.127Z,20.96
2022-08-27T22:13:12.060Z,20.95
2022-08-27T22:15:40.289Z,21.09
2022-08-27T22:18:09.873Z,20.98
2022-08-27T22:20:38.050Z,20.94
2022-08-27T22:23:06.617Z,20.97
2022-08-27T22:25:34.897Z,20.87
2022-08-27T22:28:02.737Z,20.81
2022-08-27T22:30:30.623Z,20.69
2022-08-27T22:32:58.421Z,20.84
2022-08-27T22:35:28.956Z,20.72
2022-08-27T22:37:57.714Z,20.53
2022-08-27T22:40:29.855Z,20.68
2022-08-27T22:42:58.849Z,20.72
2022-08-27T22:45:27.760Z,20.60
2022-08-27T22:47:55.953Z,20.68
2022-08-27T22:50:24.114Z,20.63
2022-08-27T22:52:53.761Z,20.59
2022-08-27T22:55:23.737Z,20.58
2022-08-27T22:57:54.706Z,20.49
2022-08-27T23:00:25.292Z,20.51
2022-08-27T23:02:53.272Z,20.56
2022-08-27T23:05:21.403Z,20.46
2022-08-27T23:07:49.562Z,20.50
2022-08-27T23:10:21.017Z,20.47
2022-08-27T23:12:49.493Z,20.62
2022-08-27T23:15:19.703Z,20.61
2022-08-27T23:17:47.609Z,20.66
2022-08-27T23:20:16.644Z,20.70
2022-08-27T23:22:45.472Z,20.58
2022-08-27T23:25:31.625Z,20.64
2022-08-27T23:28:03.680Z,20.63
2022-08-27T23:30:35.090Z,20.49
2022-08-27T23:33:03.008Z,20.61
2022-08-27T23:35:31.031Z,20.56
2022-08-27T23:37:58.967Z,20.56
2022-08-27T23:40:26.968Z,20.51
2022-08-27T23:42:54.849Z,20.57
2022-08-27T23:45:25.928Z,20.49
2022-08-27T23:47:54.026Z,20.50
2022-08-27T23:50:33.634Z,20.54
2022-08-27T23:53:02.282Z,20.44
2022-08-27T23:55:30.019Z,20.46
2022-08-27T23:57:58.361Z,20.33
